createdAt,value
2023-01-19T04:56:44.603Z,93979.00
2023-01-19T04:57:44.594Z,93975.00
2023-01-19T04:58:44.587Z,93979.00
2023-01-19T04:59:44.580Z,93977.00
2023-01-19T05:00:44.577Z,93979.00
2023-01-19T05:01:44.645Z,93980.00
2023-01-19T05:02:44.591Z,93982.00
2023-01-19T05:03:44.539Z,93986.00
2023-01-19T05:04:44.532Z,93988.00
2023-01-19T05:05:44.523Z,93990.00
2023-01-19T05:06:44.518Z,93988.00
2023-01-19T05:07:44.508Z,93988.00
2023-01-19T05:08:45.482Z,93988.00
2023-01-19T05:09:44.493Z,93990.00
2023-01-19T05:10:44.509Z,93994.00
2023-01-19T05:11:44.470Z,93994.00
2023-01-19T05:12:44.460Z,93992.00
2023-01-19T05:13:44.450Z,93996.00
2023-01-19T05:14:44.441Z,93996.00
2023-01-19T05:15:44.462Z,93998.00
2023-01-19T05:16:44.420Z,93998.00
2023-01-19T05:17:44.411Z,94002.00
2023-01-19T05:18:44.405Z,93998.00
2023-01-19T05:19:44.394Z,93998.00
2023-01-19T05:20:44.386Z,94002.00
2023-01-19T05:21:44.393Z,94006.00
2023-01-19T05:22:44.368Z,94004.00
2023-01-19T05:23:44.357Z,94004.00
2023-01-19T05:24:44.355Z,94002.00
2023-01-19T05:25:44.345Z,94004.00
2023-01-19T05:26:44.359Z,94006.00
2023-01-19T05:27:44.323Z,94008.00
2023-01-19T05:28:44.313Z,94012.00
2023-01-19T05:29:44.306Z,94012.00
2023-01-19T05:30:44.329Z,94016.00
2023-01-19T05:31:44.315Z,94016.00
2023-01-19T05:32:44.286Z,94018.00
2023-01-19T05:33:44.269Z,94016.00
2023-01-19T05:34:44.259Z,94018.00
2023-01-19T05:35:44.267Z,94016.00
2023-01-19T05:36:44.256Z,94014.00
2023-01-19T05:37:44.246Z,94016.00
2023-01-19T05:38:44.226Z,94016.00
2023-01-19T05:39:44.213Z,94018.00
2023-01-19T05:40:44.221Z,94018.00
2023-01-19T05:41:44.211Z,94018.00
2023-01-19T05:42:44.240Z,94018.00
2023-01-19T05:43:44.178Z,94016.00
2023-01-19T05:44:44.171Z,94022.00
2023-01-19T05:45:44.161Z,94016.00
2023-01-19T05:46:44.202Z,94020.00
2023-01-19T05:47:44.150Z,94018.00
2023-01-19T05:48:45.001Z,94020.00
2023-01-19T05:49:44.131Z,94022.00
2023-01-19T05:50:44.117Z,94018.00
2023-01-19T05:51:44.105Z,94022.00
2023-01-19T05:52:44.098Z,94020.00
2023-01-19T05:53:44.089Z,94022.00
2023-01-19T05:54:44.081Z,94024.00
2023-01-19T05:55:44.070Z,94026.00
2023-01-19T05:56:44.067Z,94027.00
2023-01-19T05:57:44.093Z,94031.00
2023-01-19T05:58:44.076Z,94029.00
2023-01-19T05:59:44.034Z,94033.00
2023-01-19T06:00:44.025Z,94035.00
2023-01-19T06:01:44.061Z,94037.00
2023-01-19T06:02:44.092Z,94037.00
2023-01-19T06:03:44.001Z,94039.00
2023-01-19T06:04:43.987Z,94039.00
2023-01-19T06:05:43.980Z,94039.00
2023-01-19T06:06:43.970Z,94039.00
2023-01-19T06:07:43.968Z,94039.00
2023-01-19T06:08:43.953Z,94041.00
2023-01-19T06:09:43.942Z,94041.00
2023-01-19T06:10:43.935Z,94041.00
2023-01-19T06:11:43.928Z,94039.00
2023-01-19T06:12:43.918Z,94039.00
2023-01-19T06:13:43.936Z,94039.00
2023-01-19T06:14:43.924Z,94039.00
2023-01-19T06:15:43.891Z,94041.00
2023-01-19T06:16:44.020Z,94043.00
2023-01-19T06:17:43.873Z,94041.00
2023-01-19T06:18:44.005Z,94041.00
2023-01-19T06:19:43.872Z,94043.00
2023-01-19T06:20:43.856Z,94041.00
2023-01-19T06:21:43.839Z,94045.00
2023-01-19T06:22:43.838Z,94045.00
2023-01-19T06:23:43.973Z,94045.00
2023-01-19T06:24:43.817Z,94047.00
2023-01-19T06:25:43.807Z,94047.00
2023-01-19T06:26:43.818Z,94051.00
2023-01-19T06:27:43.784Z,94049.00
2023-01-19T06:28:43.965Z,94051.00
2023-01-19T06:29:43.794Z,94049.00
2023-01-19T06:30:43.854Z,94051.00
2023-01-19T06:31:43.808Z,94049.00
2023-01-19T06:32:43.750Z,94053.00
2023-01-19T06:33:43.957Z,94049.00
2023-01-19T06:34:43.834Z,94053.00
2023-01-19T06:35:43.736Z,94053.00
2023-01-19T06:36:43.707Z,94055.00
2023-01-19T06:37:43.980Z,94055.00
2023-01-19T06:38:43.682Z,94057.00
2023-01-19T06:39:43.965Z,94057.00
2023-01-19T06:40:43.667Z,94057.00
2023-01-19T06:41:43.662Z,94061.00
2023-01-19T06:42:43.655Z,94059.00
2023-01-19T06:43:43.644Z,94063.00
2023-01-19T06:44:43.965Z,94065.00
2023-01-19T06:45:45.184Z,94063.00
2023-01-19T06:46:43.648Z,94065.00
2023-01-19T06:47:43.987Z,94067.00
2023-01-19T06:48:43.609Z,94067.00
2023-01-19T06:49:43.979Z,94067.00
2023-01-19T06:50:43.585Z,94071.00
2023-01-19T06:51:43.581Z,94069.00
2023-01-19T06:52:43.561Z,94069.00
2023-01-19T06:55:43.551Z,94073.00
2023-01-19T06:56:43.550Z,94073.00
2023-01-19T06:59:44.028Z,94076.00
2023-01-19T07:00:43.646Z,94076.00
2023-01-19T07:01:43.591Z,94076.00
2023-01-19T07:02:43.640Z,94080.00
2023-01-19T07:03:45.476Z,94080.00
2023-01-19T07:05:15.279Z,94080.00
2023-01-19T07:05:46.637Z,94082.00
2023-01-19T07:06:43.437Z,94078.00
2023-01-19T07:08:43.439Z,94084.00
2023-01-19T07:09:43.411Z,94082.00
2023-01-19T07:11:43.397Z,94082.00
2023-01-19T07:13:43.400Z,94082.00
2023-01-19T07:15:43.378Z,94082.00
2023-01-19T07:16:43.495Z,94082.00
2023-01-19T07:17:43.502Z,94080.00
2023-01-19T07:18:43.350Z,94078.00
2023-01-19T07:19:43.341Z,94082.00
2023-01-19T07:20:43.674Z,94082.00
2023-01-19T07:21:43.303Z,94084.00
2023-01-19T07:22:43.518Z,94084.00
2023-01-19T07:23:43.308Z,94086.00
2023-01-19T07:25:43.269Z,94090.00
2023-01-19T07:26:43.484Z,94092.00
2023-01-19T07:27:43.626Z,94094.00
2023-01-19T07:28:43.275Z,94096.00
2023-01-19T07:29:43.264Z,94098.00
2023-01-19T07:30:43.498Z,94098.00
2023-01-19T07:31:43.728Z,94100.00
2023-01-19T07:32:43.236Z,94102.00
2023-01-19T07:33:43.233Z,94106.00
2023-01-19T07:34:43.874Z,94108.00
2023-01-19T07:35:43.271Z,94108.00
2023-01-19T07:36:43.632Z,94106.00
2023-01-19T07:37:43.187Z,94108.00
2023-01-19T07:38:43.348Z,94108.00
2023-01-19T07:39:43.174Z,94110.00
2023-01-19T07:40:43.166Z,94110.00
2023-01-19T07:41:47.615Z,94110.00
2023-01-19T07:42:43.250Z,94110.00
2023-01-19T07:44:43.125Z,94123.00
2023-01-19T07:45:43.697Z,94119.00
2023-01-19T07:46:43.171Z,94121.00
2023-01-19T07:47:43.168Z,94125.00
2023-01-19T07:48:43.239Z,94127.00
2023-01-19T07:49:43.091Z,94129.00
2023-01-19T07:51:43.087Z,94133.00
2023-01-19T07:52:43.058Z,94135.00
2023-01-19T07:55:43.020Z,94137.00
2023-01-19T07:56:43.008Z,94137.00
2023-01-19T07:57:43.014Z,94137.00
2023-01-19T07:58:44.017Z,94141.00
2023-01-19T07:59:43.006Z,94141.00
2023-01-19T08:00:43.029Z,94139.00
2023-01-19T08:01:43.046Z,94137.00
2023-01-19T08:02:42.976Z,94137.00
2023-01-19T08:03:43.532Z,94135.00
2023-01-19T08:04:43.073Z,94135.00
2023-01-19T08:05:42.975Z,94137.00
2023-01-19T08:06:42.957Z,94137.00
2023-01-19T08:07:42.925Z,94137.00
2023-01-19T08:08:42.916Z,94139.00
2023-01-19T08:09:42.916Z,94139.00
2023-01-19T08:10:42.907Z,94139.00
2023-01-19T08:11:42.889Z,94143.00
2023-01-19T08:12:42.878Z,94141.00
2023-01-19T08:13:43.171Z,94141.00
2023-01-19T08:14:42.851Z,94141.00
2023-01-19T08:15:42.956Z,94145.00
2023-01-19T08:16:42.858Z,94147.00
2023-01-19T08:17:43.044Z,94149.00
2023-01-19T08:18:42.826Z,94151.00
2023-01-19T08:20:42.816Z,94155.00
2023-01-19T08:21:43.030Z,94157.00
2023-01-19T08:22:42.881Z,94155.00
2023-01-19T08:23:43.113Z,94157.00
2023-01-19T08:28:43.010Z,94167.00
2023-01-19T08:36:43.320Z,94174.00
2023-01-19T08:38:43.079Z,94176.00
2023-01-19T08:43:43.384Z,94182.00
2023-01-19T08:48:43.052Z,94182.00
2023-01-19T08:49:43.070Z,94176.00
2023-01-19T10:35:46.775Z,94225.00
2023-01-19T11:27:43.066Z,94204.00
2023-01-19T13:37:40.939Z,94153.00
